Time;durP1;ratioP1;P1;durP2;ratioP2;P2;SDS_P1;SDS_P2;PMS_P1;PMS_P2;Temp;Humidity;BMP_temperature;BMP_pressure;BME280_temperature;BME280_humidity;BME280_pressure;Samples;Min_cycle;Max_cycle;Signal;HPM_P1;HPM_P2
2022/04/28 00:01:42;;;;;;;43.75;24.02;;;;;;;9.43;63.05;101149.55;2078738;85;30011;-67
2022/04/28 00:04:44;;;;;;;45.52;23.80;;;;;;;9.35;63.03;101143.55;2079296;85;27605;-70
2022/04/28 00:07:47;;;;;;;45.28;24.57;;;;;;;9.26;63.09;101142.03;2078485;85;29901;-63
2022/04/28 00:10:48;;;;;;;44.95;23.27;;;;;;;9.17;63.12;101140.98;2078893;85;31825;-61
2022/04/28 00:13:50;;;;;;;46.55;24.05;;;;;;;9.07;63.15;101141.72;2079013;85;32726;-61
2022/04/28 00:16:52;;;;;;;43.68;25.50;;;;;;;8.97;63.24;101133.95;2078612;85;30844;-67
2022/04/28 00:19:55;;;;;;;48.50;26.05;;;;;;;8.90;63.36;101141.76;2079241;85;27581;-66
2022/04/28 00:22:57;;;;;;;39.83;24.70;;;;;;;8.81;63.44;101134.88;2078942;85;28654;-60
2022/04/28 00:25:59;;;;;;;47.48;27.90;;;;;;;8.72;63.52;101144.95;2078586;85;31572;-65
2022/04/28 00:29:01;;;;;;;43.55;26.23;;;;;;;8.61;63.78;101144.77;2079096;85;33564;-63
2022/04/28 00:32:03;;;;;;;44.83;25.62;;;;;;;8.51;64.10;101148.63;2079330;85;30009;-66
2022/04/28 00:35:07;;;;;;;40.03;24.15;;;;;;;8.39;64.26;101148.94;2078936;85;27637;-64
2022/04/28 00:38:11;;;;;;;40.55;24.07;;;;;;;8.29;64.31;101153.17;2078762;85;28690;-65
2022/04/28 00:41:13;;;;;;;40.38;22.87;;;;;;;8.18;64.47;101156.15;2078849;85;31585;-60
2022/04/28 00:44:14;;;;;;;42.13;23.50;;;;;;;8.08;64.48;101153.28;2079046;85;32782;-65
2022/04/28 00:47:16;;;;;;;37.08;23.30;;;;;;;7.96;64.65;101148.26;2053790;85;30490;-67
2022/04/28 00:53:47;;;;;;;44.95;22.13;;;;;;;7.74;64.68;101156.34;2092054;85;29214;-61
2022/04/28 00:56:49;;;;;;;37.38;23.20;;;;;;;7.63;64.82;101155.70;2092381;84;31509;-61
2022/04/28 00:59:52;;;;;;;40.40;24.37;;;;;;;7.53;64.96;101159.50;2091870;84;34164;-60
2022/04/28 01:02:54;;;;;;;43.48;24.95;;;;;;;7.43;65.03;101161.50;2092323;84;29645;-60
2022/04/28 01:05:57;;;;;;;42.45;24.90;;;;;;;7.32;65.42;101158.20;2072799;85;27733;-60
2022/04/28 01:08:59;;;;;;;40.85;23.83;;;;;;;7.22;65.47;101162.39;2092403;85;28672;-62
2022/04/28 01:12:01;;;;;;;35.00;22.02;;;;;;;7.11;65.41;101157.31;2091973;84;31640;-60
2022/04/28 01:15:05;;;;;;;43.58;25.15;;;;;;;7.02;65.53;101153.50;2092123;84;33343;-64
2022/04/28 01:18:07;;;;;;;41.73;25.12;;;;;;;6.92;65.63;101156.80;2092312;84;29683;-60
2022/04/28 01:21:09;;;;;;;39.15;25.00;;;;;;;6.84;65.96;101154.77;2092307;84;27660;-62
2022/04/28 01:24:12;;;;;;;41.13;24.80;;;;;;;6.74;65.95;101147.41;2092547;84;29387;-61
2022/04/28 01:27:14;;;;;;;42.48;25.02;;;;;;;6.66;66.23;101154.66;2091890;85;31019;-59
2022/04/28 01:30:16;;;;;;;47.10;26.33;;;;;;;6.56;66.30;101147.77;2091998;84;32929;-60
2022/04/28 01:33:17;;;;;;;46.10;25.80;;;;;;;6.45;66.24;101151.53;2092517;85;30297;-61
2022/04/28 01:36:20;;;;;;;45.50;26.35;;;;;;;6.38;66.23;101153.40;2092022;85;27701;-64
2022/04/28 01:39:22;;;;;;;49.75;29.55;;;;;;;6.31;66.34;101157.53;2091948;85;29347;-60
2022/04/28 01:42:24;;;;;;;46.35;26.23;;;;;;;6.22;66.78;101162.13;2092157;84;30772;-63
2022/04/28 01:45:26;;;;;;;45.58;27.95;;;;;;;6.15;66.68;101163.59;2092244;85;32944;-60
2022/04/28 01:48:27;;;;;;;46.25;26.80;;;;;;;6.07;66.86;101159.73;2092107;85;29656;-62
2022/04/28 01:54:58;;;;;;;52.78;29.42;;;;;;;5.91;67.12;101167.05;2078851;85;28693;-59
2022/04/28 01:58:01;;;;;;;46.85;29.15;;;;;;;5.83;67.15;101164.51;2079365;85;31917;-60
2022/04/28 02:01:02;;;;;;;45.80;27.87;;;;;;;5.76;67.25;101165.06;2079057;85;33777;-59
2022/04/28 02:04:04;;;;;;;48.08;29.30;;;;;;;5.70;67.40;101168.27;2079137;85;29777;-60
2022/04/28 02:07:09;;;;;;;53.08;30.95;;;;;;;5.64;67.63;101173.23;2079098;85;27677;-59
2022/04/28 02:10:11;;;;;;;53.70;33.67;;;;;;;5.58;67.63;101162.67;2079158;85;33350;-60
2022/04/28 02:13:13;;;;;;;55.60;33.33;;;;;;;5.53;68.01;101169.87;2079299;85;31386;-63
2022/04/28 02:16:15;;;;;;;49.63;31.50;;;;;;;5.47;67.98;101170.80;2078925;85;34061;-63
2022/04/28 02:19:18;;;;;;;55.55;32.85;;;;;;;5.40;68.15;101171.81;2078589;85;29669;-63
2022/04/28 02:22:20;;;;;;;54.38;33.98;;;;;;;5.37;68.56;101165.20;2078917;85;27743;-61
2022/04/28 02:25:22;;;;;;;59.33;34.27;;;;;;;5.30;68.86;101167.07;2078928;85;28671;-60
2022/04/28 02:28:26;;;;;;;60.08;34.30;;;;;;;5.25;68.97;101168.91;2079075;85;30822;-67
2022/04/28 02:31:27;;;;;;;61.50;35.45;;;;;;;5.20;69.14;101163.66;2079065;85;33638;-60
2022/04/28 02:34:29;;;;;;;57.27;35.20;;;;;;;5.15;69.22;101161.50;2078999;85;30785;-59
2022/04/28 02:37:31;;;;;;;59.10;34.78;;;;;;;5.09;69.38;101158.48;2079498;85;27699;-60
2022/04/28 02:40:33;;;;;;;62.83;35.43;;;;;;;5.05;69.68;101161.20;2078860;85;29886;-67
2022/04/28 02:43:36;;;;;;;55.17;34.27;;;;;;;5.00;69.65;101164.79;2078775;85;31729;-62
2022/04/28 02:46:45;;;;;;;50.63;31.77;;;;;;;4.95;69.55;101167.08;2078629;85;34169;-59
2022/04/28 02:49:47;;;;;;;53.17;31.52;;;;;;;4.89;69.60;101163.16;2077806;84;29973;-59
2022/04/28 02:52:54;;;;;;;59.50;35.13;;;;;;;4.85;69.72;101174.27;2074007;85;27664;-59
2022/04/28 02:55:54;;;;;;;55.70;31.70;;;;;;;4.74;69.95;101162.91;2074025;85;29526;-59
2022/04/28 02:58:56;;;;;;;52.10;32.53;;;;;;;4.76;69.68;101171.73;2073750;85;31193;-59
2022/04/28 03:01:57;;;;;;;55.33;33.40;;;;;;;4.71;70.00;101170.47;2073519;85;33570;-60
2022/04/28 03:05:03;;;;;;;57.25;34.18;;;;;;;4.68;69.96;101181.11;2073547;85;30215;-59
2022/04/28 03:11:27;;;;;;;55.85;33.35;;;;;;;4.61;70.19;101182.96;2073557;85;29979;-59
2022/04/28 03:14:29;;;;;;;53.10;32.42;;;;;;;4.57;70.27;101190.52;2074056;85;30991;-59
2022/04/28 03:17:31;;;;;;;55.60;33.95;;;;;;;4.53;70.39;101187.02;2073733;85;33322;-66
2022/04/28 03:20:33;;;;;;;53.98;31.52;;;;;;;4.50;70.63;101188.80;2073649;85;29646;-71
2022/04/28 03:23:36;;;;;;;55.60;31.12;;;;;;;4.47;70.66;101184.41;2073470;85;27740;-70
2022/04/28 03:26:39;;;;;;;54.55;33.00;;;;;;;4.45;70.96;101182.69;2073630;85;28667;-71
2022/04/28 03:29:41;;;;;;;52.98;31.07;;;;;;;4.44;70.99;101191.54;2073361;85;31882;-71
2022/04/28 03:32:43;;;;;;;57.23;33.85;;;;;;;4.43;71.02;101191.11;2073550;85;34224;-72
2022/04/28 03:35:45;;;;;;;55.20;32.25;;;;;;;4.40;71.26;101195.97;2073340;85;30190;-66
2022/04/28 03:38:46;;;;;;;52.80;31.33;;;;;;;4.40;71.54;101196.87;2073667;85;27704;-72
2022/04/28 03:41:48;;;;;;;47.45;29.77;;;;;;;4.40;71.60;101196.87;2073657;85;28572;-72
2022/04/28 03:44:50;;;;;;;57.45;33.25;;;;;;;4.41;71.54;101195.97;2073563;85;31438;-71
2022/04/28 03:47:52;;;;;;;52.75;31.23;;;;;;;4.43;71.73;101194.62;2073543;85;33904;-72
2022/04/28 03:50:53;;;;;;;48.23;30.62;;;;;;;4.46;71.77;101197.71;2075783;84;30519;-70
2022/04/28 03:54:00;;;;;;;52.75;31.10;;;;;;;4.48;71.68;101203.86;2078559;85;27685;-68
2022/04/28 03:57:00;;;;;;;45.52;28.80;;;;;;;4.51;71.82;101202.50;2078677;84;28793;-66
2022/04/28 04:00:02;;;;;;;47.60;30.60;;;;;;;4.56;71.87;101206.86;2078744;85;32245;-69
2022/04/28 04:03:04;;;;;;;57.08;33.98;;;;;;;4.63;71.95;101211.69;2078900;85;32983;-68
2022/04/28 04:06:06;;;;;;;48.00;32.88;;;;;;;4.70;72.13;101217.34;2078519;85;30926;-63
2022/04/28 04:09:08;;;;;;;53.87;33.48;;;;;;;4.78;72.34;101221.71;2079043;85;27731;-65
2022/04/28 04:12:11;;;;;;;49.30;30.90;;;;;;;4.88;72.46;101222.03;2078559;85;29883;-68
2022/04/28 04:15:13;;;;;;;55.05;33.08;;;;;;;4.99;72.50;101217.94;2079298;85;31020;-68
2022/04/28 04:18:15;;;;;;;61.55;33.73;;;;;;;5.12;72.60;101223.98;2078760;85;33521;-71
2022/04/28 04:21:19;;;;;;;52.65;31.17;;;;;;;5.24;72.67;101218.95;2078947;85;29981;-68
2022/04/28 04:24:21;;;;;;;50.52;31.02;;;;;;;5.36;72.64;101226.78;2079135;85;27715;-63
2022/04/28 04:27:23;;;;;;;51.08;31.70;;;;;;;5.48;72.59;101227.94;2078516;85;29917;-70
2022/04/28 04:33:45;;;;;;;53.55;31.70;;;;;;;5.76;72.55;101234.66;2078724;85;33911;-70
2022/04/28 04:36:47;;;;;;;45.00;30.57;;;;;;;5.90;72.58;101232.66;2078979;85;30749;-62
2022/04/28 04:39:49;;;;;;;47.27;28.73;;;;;;;6.05;72.53;101240.02;2078905;85;27697;-64
2022/04/28 04:42:51;;;;;;;53.23;32.25;;;;;;;6.21;72.50;101244.62;2079086;85;29891;-66
2022/04/28 04:45:53;;;;;;;48.58;29.30;;;;;;;6.41;72.53;101242.08;2078789;85;32257;-66
2022/04/28 04:48:55;;;;;;;49.80;31.82;;;;;;;6.88;72.87;101250.13;2078757;85;34289;-65
2022/04/28 04:51:57;;;;;;;49.13;31.07;;;;;;;7.50;72.90;101247.11;2074805;84;29958;-65
2022/04/28 04:55:00;;;;;;;48.02;27.75;;;;;;;8.26;72.55;101244.04;2074024;85;27661;-64
2022/04/28 04:58:03;;;;;;;44.75;25.97;;;;;;;9.05;71.54;101246.47;2073592;85;28756;-61
2022/04/28 05:01:06;;;;;;;33.80;23.40;;;;;;;9.82;70.66;101248.67;2074024;85;31078;-69
2022/04/28 05:04:08;;;;;;;31.82;22.00;;;;;;;10.55;69.56;101249.02;2073849;85;33478;-67
2022/04/28 05:07:10;;;;;;;32.65;20.72;;;;;;;11.21;68.38;101245.80;2073597;85;30815;-63
2022/04/28 05:10:12;;;;;;;31.40;20.25;;;;;;;11.79;67.72;101246.72;2073916;85;27654;-63
2022/04/28 05:13:14;;;;;;;31.75;19.73;;;;;;;12.41;66.83;101245.58;2073549;85;29906;-64
2022/04/28 05:16:16;;;;;;;25.50;18.37;;;;;;;13.06;65.92;101246.80;2073489;85;32326;-61
2022/04/28 05:19:18;;;;;;;25.20;17.37;;;;;;;13.70;64.91;101243.94;2073538;85;33793;-62
2022/04/28 05:22:23;;;;;;;25.17;17.45;;;;;;;14.27;64.41;101247.90;2073597;85;30928;-61
2022/04/28 05:25:25;;;;;;;26.35;17.75;;;;;;;14.80;63.22;101247.97;2073950;85;27695;-69
2022/04/28 05:28:28;;;;;;;23.10;16.65;;;;;;;15.28;62.74;101245.91;2073861;85;28816;-61
2022/04/28 05:31:30;;;;;;;21.30;15.78;;;;;;;15.62;61.18;101244.91;2073985;85;30410;-63
2022/04/28 05:34:32;;;;;;;23.45;17.32;;;;;;;15.92;60.27;101251.41;2073828;85;34185;-61
2022/04/28 05:37:35;;;;;;;22.58;15.88;;;;;;;16.14;59.89;101246.11;2073359;85;30479;-62
2022/04/28 05:40:41;;;;;;;19.98;14.35;;;;;;;16.27;59.18;101248.52;2073681;85;27644;-63
2022/04/28 05:47:04;;;;;;;17.77;12.35;;;;;;;16.37;58.31;101252.41;2073702;85;31224;-62
2022/04/28 05:50:08;;;;;;;17.32;12.90;;;;;;;16.70;57.41;101252.71;2074132;83;33894;-64
2022/04/28 05:53:11;;;;;;;15.15;11.18;;;;;;;17.09;56.93;101261.72;2073953;85;29506;-61
2022/04/28 05:56:13;;;;;;;19.80;11.83;;;;;;;17.57;56.29;101254.19;2073608;85;27704;-62
2022/04/28 05:59:16;;;;;;;12.95;9.50;;;;;;;18.06;55.85;101257.42;2073840;85;29488;-62
2022/04/28 06:02:18;;;;;;;15.88;9.93;;;;;;;18.42;54.45;101257.77;2073821;85;32212;-63
2022/04/28 06:05:21;;;;;;;13.22;9.33;;;;;;;18.25;53.59;101262.48;2073458;85;33011;-61
2022/04/28 06:08:23;;;;;;;10.15;8.23;;;;;;;18.07;53.01;101268.15;2073897;85;30010;-60
2022/04/28 06:11:24;;;;;;;15.83;8.68;;;;;;;17.96;52.62;101271.14;2073867;85;27601;-68
2022/04/28 06:14:27;;;;;;;10.48;8.78;;;;;;;18.25;51.88;101269.76;2073361;85;29878;-63
2022/04/28 06:17:29;;;;;;;14.10;9.83;;;;;;;18.61;51.62;101271.83;2073661;85;31085;-63
2022/04/28 06:20:31;;;;;;;13.22;9.10;;;;;;;19.02;51.27;101272.69;2073532;85;34395;-62
2022/04/28 06:23:34;;;;;;;12.07;8.65;;;;;;;19.44;50.51;101271.12;2073837;85;29950;-61
2022/04/28 06:26:36;;;;;;;12.20;9.58;;;;;;;19.92;49.87;101271.78;2073594;85;27608;-61
2022/04/28 06:29:38;;;;;;;13.53;8.35;;;;;;;20.39;48.81;101270.55;2073609;85;29555;-62
2022/04/28 06:32:41;;;;;;;15.10;8.85;;;;;;;20.79;48.46;101270.25;2073509;85;31922;-63
2022/04/28 06:35:44;;;;;;;9.80;8.18;;;;;;;21.17;47.25;101273.67;2073861;85;34147;-62
2022/04/28 06:38:46;;;;;;;13.43;10.18;;;;;;;21.44;45.97;101271.59;2073642;85;29636;-61
2022/04/28 06:41:50;;;;;;;15.88;10.93;;;;;;;21.70;45.78;101277.70;2073556;85;28308;-61
2022/04/28 06:44:53;;;;;;;20.40;12.50;;;;;;;21.94;45.37;101277.55;2073755;85;28687;-62
2022/04/28 06:47:56;;;;;;;13.88;10.08;;;;;;;22.22;44.91;101282.07;2073719;85;31050;-60
2022/04/28 06:50:58;;;;;;;11.03;8.63;;;;;;;22.45;44.27;101277.95;2073413;84;34181;-62
2022/04/28 06:54:00;;;;;;;11.50;9.00;;;;;;;22.64;43.23;101277.75;2073618;85;31791;-61
2022/04/28 06:57:03;;;;;;;11.25;8.73;;;;;;;22.77;42.97;101277.06;2073690;85;27692;-62
2022/04/28 07:00:08;;;;;;;13.85;8.33;;;;;;;22.94;42.47;101278.83;2073543;85;29532;-63
2022/04/28 07:03:10;;;;;;;;;;;;;;;23.17;42.20;101280.41;2076330;85;31030;-70
2022/04/28 07:06:12;;;;;;;8.58;6.85;;;;;;;23.45;41.56;101279.88;2073960;85;33940;-75
2022/04/28 07:09:14;;;;;;;13.72;8.13;;;;;;;23.61;41.03;101282.97;2073588;85;30090;-70
2022/04/28 07:12:16;;;;;;;8.65;7.08;;;;;;;23.76;40.39;101283.95;2074252;85;27680;-73
2022/04/28 07:15:19;;;;;;;6.22;5.05;;;;;;;23.91;39.84;101278.98;2073543;85;29878;-70
2022/04/28 07:18:22;;;;;;;8.35;6.42;;;;;;;23.96;38.65;101283.54;2073804;85;31035;-62
2022/04/28 07:21:24;;;;;;;5.42;3.92;;;;;;;24.12;38.45;101288.48;2073823;85;33038;-70
2022/04/28 07:24:27;;;;;;;4.42;3.92;;;;;;;24.15;36.60;101285.99;2073949;85;30569;-70
2022/04/28 07:27:29;;;;;;;4.92;4.08;;;;;;;24.08;35.80;101282.92;2073584;85;27720;-64
2022/04/28 07:30:31;;;;;;;4.87;3.92;;;;;;;23.94;35.97;101289.13;2073628;85;29957;-64
2022/04/28 07:33:33;;;;;;;4.83;4.28;;;;;;;23.91;35.61;101287.19;2073628;85;32442;-65
2022/04/28 07:36:35;;;;;;;11.83;3.65;;;;;;;24.03;35.13;101290.20;2073471;85;33882;-66
2022/04/28 07:39:38;;;;;;;5.35;3.83;;;;;;;24.17;34.71;101292.16;2073991;85;29288;-67
2022/04/28 07:42:41;;;;;;;6.53;5.22;;;;;;;24.25;35.00;101284.98;2073903;85;27991;-71
2022/04/28 07:45:43;;;;;;;8.80;3.70;;;;;;;24.45;34.47;101288.27;2074030;85;29489;-68
2022/04/28 07:48:45;;;;;;;3.98;3.08;;;;;;;24.49;34.07;101298.78;2073679;85;32320;-64
2022/04/28 07:51:47;;;;;;;6.80;3.45;;;;;;;24.43;32.83;101294.75;2079454;85;34794;-67
2022/04/28 07:54:51;;;;;;;4.47;3.40;;;;;;;24.42;33.15;101291.64;2092050;85;30519;-64
2022/04/28 07:57:53;;;;;;;5.70;3.12;;;;;;;24.35;32.62;101294.58;2092137;84;28356;-61
2022/04/28 08:00:55;;;;;;;5.55;2.92;;;;;;;24.44;32.15;101296.97;2091847;84;29701;-60
2022/04/28 08:03:57;;;;;;;3.70;3.12;;;;;;;24.39;32.45;101299.30;2091853;84;31970;-63
2022/04/28 08:07:00;;;;;;;3.85;2.87;;;;;;;24.49;31.44;101299.30;2091722;84;34162;-65
2022/04/28 08:10:06;;;;;;;4.80;3.45;;;;;;;24.48;31.46;101304.42;2092278;84;29643;-60
2022/04/28 08:13:12;;;;;;;6.45;3.85;;;;;;;24.47;31.58;101302.69;2092749;84;27734;-62
2022/04/28 08:16:15;;;;;;;7.35;3.58;;;;;;;24.46;31.12;101302.32;2092247;84;29704;-67
2022/04/28 08:19:21;;;;;;;5.83;3.55;;;;;;;24.41;31.18;101304.98;2092130;83;27827;-68
2022/04/28 08:22:23;;;;;;;4.17;3.60;;;;;;;24.30;31.26;101302.87;2092420;85;33584;-62
2022/04/28 08:25:25;;;;;;;5.17;3.80;;;;;;;24.23;31.14;101309.41;2091978;84;30835;-59
2022/04/28 08:28:28;;;;;;;4.08;3.40;;;;;;;24.31;31.11;101310.95;2092171;85;27632;-60
2022/04/28 08:31:43;;;;;;;6.33;4.60;;;;;;;24.32;31.33;101307.22;2092573;84;28651;-73
2022/04/28 08:34:42;;;;;;;8.35;4.25;;;;;;;24.24;30.67;101302.41;2093183;83;31780;-60
2022/04/28 08:37:45;;;;;;;6.62;4.72;;;;;;;24.14;31.19;101311.64;2092402;85;33936;-60
2022/04/28 08:40:48;;;;;;;4.55;4.12;;;;;;;24.08;31.01;101314.41;2092341;84;30163;-70
2022/04/28 08:43:51;;;;;;;5.30;4.07;;;;;;;24.00;31.36;101311.00;2092658;85;27690;-72
2022/04/28 08:46:54;;;;;;;7.67;4.67;;;;;;;23.97;31.38;101309.94;2092322;85;28699;-71
2022/04/28 08:50:00;;;;;;;5.20;4.70;;;;;;;23.88;30.85;101314.34;2091829;85;30909;-69
2022/04/28 08:53:05;;;;;;;6.20;4.35;;;;;;;23.63;30.95;101318.41;2092007;85;33398;-72
2022/04/28 08:56:10;;;;;;;5.80;5.12;;;;;;;23.44;31.18;101315.94;2091825;84;30922;-72
2022/04/28 08:59:14;;;;;;;9.70;5.08;;;;;;;23.09;30.70;101319.86;2092536;85;27776;-67
2022/04/28 09:02:26;;;;;;;5.95;4.87;;;;;;;22.84;31.22;101331.52;2092436;84;29145;-70
2022/04/28 09:05:32;;;;;;;6.70;4.78;;;;;;;22.45;30.99;101327.95;2092152;84;31848;-65
2022/04/28 09:08:34;;;;;;;7.30;5.62;;;;;;;22.10;31.10;101331.71;2092155;85;33739;-61
2022/04/28 09:11:41;;;;;;;8.75;4.50;;;;;;;21.85;31.07;101321.94;2092179;84;30229;-61
2022/04/28 09:14:43;;;;;;;6.95;5.30;;;;;;;21.61;31.23;101322.06;2092176;84;27639;-60
2022/04/28 09:17:47;;;;;;;8.20;5.25;;;;;;;21.34;31.24;101324.62;2091835;84;30074;-61
2022/04/28 09:20:51;;;;;;;7.73;4.97;;;;;;;21.18;32.02;101322.25;2072771;85;31204;-64
2022/04/28 09:23:54;;;;;;;9.05;5.12;;;;;;;21.15;32.30;101319.76;2092342;84;32976;-59
2022/04/28 09:26:57;;;;;;;7.65;5.28;;;;;;;21.15;32.02;101319.76;2091811;84;30495;-60
2022/04/28 09:30:00;;;;;;;7.55;4.65;;;;;;;21.09;32.04;101318.39;2092294;84;27716;-60
2022/04/28 09:33:11;;;;;;;5.50;4.85;;;;;;;20.92;32.78;101323.77;2072410;85;28648;-60
2022/04/28 09:36:14;;;;;;;5.20;4.50;;;;;;;20.84;32.90;101328.95;2091829;84;31907;-61
2022/04/28 09:42:46;;;;;;;7.58;5.30;;;;;;;20.30;32.37;101327.89;2091972;85;30957;-59
2022/04/28 09:45:50;;;;;;;5.12;4.62;;;;;;;19.99;32.76;101334.24;2092378;85;27692;-59
2022/04/28 09:48:53;;;;;;;5.75;4.80;;;;;;;19.81;33.34;101335.08;2092196;84;33573;-60
2022/04/28 09:51:59;;;;;;;5.92;5.05;;;;;;;19.80;33.54;101331.09;2091992;84;31064;-60
2022/04/28 09:55:03;;;;;;;7.03;5.00;;;;;;;19.79;33.75;101326.16;2072850;85;32977;-60
2022/04/28 09:58:09;;;;;;;5.57;4.80;;;;;;;19.81;33.82;101330.11;2092325;85;30545;-59
2022/04/28 10:01:11;;;;;;;9.10;4.30;;;;;;;19.77;33.44;101326.75;2092402;85;28199;-58
2022/04/28 10:04:13;;;;;;;6.47;4.20;;;;;;;19.75;34.10;101324.63;2091921;85;29794;-58
2022/04/28 10:07:17;;;;;;;6.92;4.75;;;;;;;19.80;34.15;101323.81;2091826;85;31725;-59
2022/04/28 10:10:19;;;;;;;12.05;4.90;;;;;;;19.78;33.98;101329.84;2092058;84;32968;-60
2022/04/28 10:13:22;;;;;;;7.05;4.58;;;;;;;19.80;33.54;101331.09;2091782;84;30831;-67
2022/04/28 10:16:25;;;;;;;8.48;4.50;;;;;;;19.67;33.88;101325.18;2092167;84;28144;-59
2022/04/28 10:19:36;;;;;;;9.50;4.30;;;;;;;19.61;34.08;101329.69;2091711;84;29895;-59
2022/04/28 10:22:39;;;;;;;5.72;4.45;;;;;;;19.56;34.22;101327.30;2092143;84;31931;-59
2022/04/28 10:32:55;;;;;;;5.78;4.22;;;;;;;19.13;33.93;101325.77;2091896;85;27791;-59
2022/04/28 10:36:01;;;;;;;5.12;3.58;;;;;;;18.95;33.98;101326.56;2092476;84;28645;-59
2022/04/28 10:39:08;;;;;;;7.20;4.20;;;;;;;18.87;34.18;101330.23;2072963;84;35248;-59
2022/04/28 10:42:16;;;;;;;6.83;3.77;;;;;;;18.69;34.00;101331.02;2119267;83;33064;-59
2022/04/28 10:45:28;;;;;;;8.30;4.10;;;;;;;18.55;34.27;101322.94;2072347;85;30361;-59
2022/04/28 10:48:45;;;;;;;6.45;4.12;;;;;;;18.55;34.07;101324.30;2092166;83;28282;-61
2022/04/28 10:51:44;;;;;;;7.30;4.05;;;;;;;18.47;34.56;101318.88;2038523;85;29014;-59
2022/04/28 10:54:46;;;;;;;5.00;3.98;;;;;;;18.49;34.66;101323.72;2038691;85;31679;-58
2022/04/28 10:57:48;;;;;;;5.25;3.90;;;;;;;18.52;34.68;101319.95;2038520;87;34256;-59
2022/04/28 11:00:59;;;;;;;6.83;4.60;;;;;;;18.49;34.71;101324.22;2038968;87;30767;-58
2022/04/28 11:04:02;;;;;;;5.62;3.98;;;;;;;18.45;34.11;101319.97;2038750;87;27686;-58
2022/04/28 11:07:16;;;;;;;6.92;5.05;;;;;;;18.33;33.96;101319.82;2038947;87;29509;-61
2022/04/28 11:10:19;;;;;;;7.45;4.55;;;;;;;18.16;34.23;101322.27;2038836;87;31443;-59
2022/04/28 11:13:24;;;;;;;6.90;3.80;;;;;;;18.06;34.75;101315.22;2038920;87;32961;-59
2022/04/28 11:16:27;;;;;;;5.67;4.22;;;;;;;17.95;35.45;101322.30;2039048;87;29643;-59
2022/04/28 11:19:33;;;;;;;9.00;4.70;;;;;;;17.92;34.58;101324.70;2039031;87;27762;-58
2022/04/28 11:22:34;;;;;;;7.17;4.47;;;;;;;17.90;35.09;101328.87;2038843;87;28637;-60
2022/04/28 11:25:36;;;;;;;7.85;4.60;;;;;;;17.92;35.04;101317.92;2038596;87;32281;-59
2022/04/28 11:28:39;;;;;;;10.03;4.75;;;;;;;17.94;34.98;101325.48;2064665;85;33044;-64
2022/04/28 11:31:48;;;;;;;5.55;4.35;;;;;;;17.89;34.63;101325.78;2086085;85;28831;-62
2022/04/28 11:34:52;;;;;;;7.72;3.85;;;;;;;17.85;34.74;101320.16;2086117;85;27591;-59
2022/04/28 11:37:55;;;;;;;7.27;4.67;;;;;;;17.82;35.01;101315.42;2086428;85;29497;-62
2022/04/28 11:41:04;;;;;;;10.25;4.00;;;;;;;17.77;34.75;101327.92;2086034;84;32426;-59
2022/04/28 11:44:13;;;;;;;6.42;4.37;;;;;;;17.67;34.29;101318.62;2086293;85;33013;-69
2022/04/28 11:47:15;;;;;;;5.08;4.20;;;;;;;17.56;35.18;101325.59;2086214;85;29410;-62
2022/04/28 11:50:20;;;;;;;6.33;4.60;;;;;;;17.55;35.37;101325.20;2086211;85;27680;-65
2022/04/28 11:53:22;;;;;;;7.37;4.92;;;;;;;17.53;34.37;101324.43;2088188;84;29448;-59
2022/04/28 11:56:29;;;;;;;8.55;4.90;;;;;;;17.42;35.28;101317.47;2095303;84;31477;-59
2022/04/28 11:59:38;;;;;;;6.30;4.47;;;;;;;17.34;34.95;101323.83;2092549;83;33503;-59
2022/04/28 12:02:41;;;;;;;7.92;4.50;;;;;;;17.24;35.86;101317.64;2092056;84;30073;-60
2022/04/28 12:05:44;;;;;;;18.77;5.33;;;;;;;17.25;36.06;101317.14;2092105;84;27696;-63
2022/04/28 12:15:27;;;;;;;9.33;5.25;;;;;;;17.26;36.56;101320.23;2050407;86;34142;-60
2022/04/28 12:21:51;;;;;;;5.28;4.40;;;;;;;17.25;35.98;101310.38;2050914;86;27748;-60
2022/04/28 12:24:54;;;;;;;7.65;4.50;;;;;;;17.41;36.45;101311.66;2051070;86;28708;-62
2022/04/28 12:27:57;;;;;;;5.22;4.00;;;;;;;17.46;36.40;101316.28;2050849;86;32170;-60
2022/04/28 12:31:02;;;;;;;6.25;4.20;;;;;;;17.52;35.65;101315.91;2051049;86;33050;-66
2022/04/28 12:34:12;;;;;;;9.28;5.90;;;;;;;17.56;35.60;101311.16;2051299;86;29657;-64
2022/04/28 12:37:39;;;;;;;7.65;4.05;;;;;;;17.65;36.18;101306.53;2051180;86;27837;-59
2022/04/28 12:40:43;;;;;;;5.03;2.92;;;;;;;17.82;36.13;101303.23;2050782;86;29945;-59
2022/04/28 12:43:50;;;;;;;5.78;3.10;;;;;;;18.06;36.36;101302.16;2051000;86;32020;-61
2022/04/28 12:46:55;;;;;;;3.95;3.20;;;;;;;18.25;35.53;101295.03;2050700;86;33687;-62
2022/04/28 12:49:58;;;;;;;6.72;3.87;;;;;;;18.41;36.12;101295.36;2051875;86;30827;-62
2022/04/28 12:53:02;;;;;;;6.35;3.60;;;;;;;18.53;36.17;101293.20;2052866;86;27706;-65
2022/04/28 12:56:14;;;;;;;5.05;3.27;;;;;;;18.51;35.17;101299.22;2050076;86;28744;-62
2022/04/28 12:59:21;;;;;;;7.55;3.30;;;;;;;18.46;35.18;101299.50;2049769;86;31050;-61
2022/04/28 13:02:33;;;;;;;6.40;3.60;;;;;;;18.37;35.46;101306.91;2014677;88;33965;-65
2022/04/28 13:05:36;;;;;;;6.90;3.42;;;;;;;18.26;35.32;101291.34;2082511;85;29710;-63
2022/04/28 13:08:38;;;;;;;7.17;3.95;;;;;;;18.22;35.48;101290.69;2049495;86;28335;-63
2022/04/28 13:11:43;;;;;;;6.58;3.90;;;;;;;18.12;35.08;101295.45;2082210;85;29613;-63
2022/04/28 13:14:45;;;;;;;5.17;3.50;;;;;;;17.91;35.40;101300.80;2082317;85;31018;-62
2022/04/28 13:17:47;;;;;;;5.85;3.72;;;;;;;17.78;35.49;101297.14;2049809;86;32977;-68
2022/04/28 13:20:51;;;;;;;5.80;3.70;;;;;;;17.71;35.46;101299.34;2082156;85;29268;-58
2022/04/28 13:23:54;;;;;;;5.97;2.90;;;;;;;17.64;35.37;101285.82;2082142;85;27681;-59
2022/04/28 13:26:59;;;;;;;7.15;3.27;;;;;;;17.64;35.65;101290.35;2082462;85;29449;-60
2022/04/28 13:30:00;;;;;;;6.62;3.37;;;;;;;17.65;35.96;101294.34;2082577;85;31031;-60
2022/04/28 13:33:03;;;;;;;4.95;3.62;;;;;;;17.65;35.71;101291.63;2082417;85;34072;-60
2022/04/28 13:36:07;;;;;;;8.30;3.70;;;;;;;17.64;35.47;101283.11;2082020;85;30391;-62
2022/04/28 13:39:10;;;;;;;4.65;3.50;;;;;;;17.54;35.07;101276.05;2082219;85;28249;-62
2022/04/28 13:42:12;;;;;;;5.08;2.80;;;;;;;17.43;34.86;101280.79;2082168;85;29454;-62
2022/04/28 13:45:15;;;;;;;7.42;3.40;;;;;;;17.42;35.29;101280.40;2082043;85;32249;-62
2022/04/28 13:48:19;;;;;;;6.72;3.17;;;;;;;17.42;35.10;101281.75;2082662;85;33682;-61
2022/04/28 13:51:21;;;;;;;6.20;3.12;;;;;;;17.47;35.09;101276.03;2049781;86;29672;-62
2022/04/28 13:54:24;;;;;;;5.30;2.95;;;;;;;17.53;35.47;101273.45;2080839;85;27620;-70
2022/04/28 13:57:27;;;;;;;5.90;2.92;;;;;;;17.57;35.11;101269.09;2079640;85;30007;-65
2022/04/28 14:00:30;;;;;;;6.12;3.12;;;;;;;17.58;35.23;101268.13;2079850;85;31155;-73
2022/04/28 14:03:34;;;;;;;6.28;3.00;;;;;;;17.60;35.08;101267.55;2079680;85;33680;-62
2022/04/28 14:06:36;;;;;;;4.33;2.90;;;;;;;17.58;34.93;101271.30;2080154;85;29587;-63
2022/04/28 14:09:39;;;;;;;7.53;3.08;;;;;;;17.59;35.23;101273.92;2079958;85;27716;-66
2022/04/28 14:12:42;;;;;;;9.33;3.12;;;;;;;17.61;34.84;101270.64;2079904;85;28823;-69
2022/04/28 14:15:44;;;;;;;4.30;2.85;;;;;;;17.64;34.89;101273.63;2053038;86;30855;-69
2022/04/28 14:18:47;;;;;;;7.47;3.55;;;;;;;17.59;34.99;101268.98;2017962;88;33243;-63
2022/04/28 14:21:50;;;;;;;8.05;2.12;;;;;;;17.54;34.38;101274.70;2079594;85;30460;-60
2022/04/28 14:24:54;;;;;;;5.87;2.35;;;;;;;17.49;34.47;101278.67;2079491;85;27746;-64
2022/04/28 14:27:56;;;;;;;6.28;3.12;;;;;;;17.45;34.34;101273.44;2079306;85;29585;-65
2022/04/28 14:30:59;;;;;;;4.58;2.95;;;;;;;17.43;34.17;101265.03;2079357;85;32278;-59
2022/04/28 14:34:01;;;;;;;8.80;2.92;;;;;;;17.40;34.12;101267.93;2052760;86;33376;-60
2022/04/28 14:37:06;;;;;;;7.50;3.27;;;;;;;17.31;34.34;101261.25;2017559;88;31011;-60
2022/04/28 14:40:11;;;;;;;8.03;3.52;;;;;;;17.28;34.62;101261.44;2079895;85;27675;-60
2022/04/28 14:43:14;;;;;;;5.62;2.92;;;;;;;17.25;34.97;101269.75;2079831;85;28702;-59
2022/04/28 14:46:16;;;;;;;5.45;3.25;;;;;;;17.24;34.83;101261.23;2079967;85;31204;-61